Time;durP1;ratioP1;P1;durP2;ratioP2;P2;SDS_P1;SDS_P2;PMS_P1;PMS_P2;Temp;Humidity;BMP_temperature;BMP_pressure;BME280_temperature;BME280_humidity;BME280_pressure;Samples;Min_cycle;Max_cycle;Signal;HPM_P1;HPM_P2
2021/05/18 00:01:09;;;;;;;1.20;1.10;;;12.10;99.90;;;;;;5116347;28;20215;-64
2021/05/18 00:03:37;;;;;;;1.53;1.13;;;12.00;99.90;;;;;;5115606;28;20295;-60
2021/05/18 00:06:05;;;;;;;1.10;1.00;;;12.00;99.90;;;;;;5115965;28;20298;-59
2021/05/18 00:11:42;;;;;;;1.40;1.30;;;12.10;99.90;;;;;;5116298;28;20199;-59
2021/05/18 00:14:06;;;;;;;1.40;1.30;;;12.10;99.90;;;;;;5115695;28;20223;-60
2021/05/18 00:16:33;;;;;;;1.40;1.30;;;12.10;99.90;;;;;;5115823;28;20226;-60
2021/05/18 00:19:01;;;;;;;1.43;1.33;;;12.20;99.90;;;;;;5115184;28;20656;-60
2021/05/18 00:21:29;;;;;;;2.63;1.67;;;12.10;99.90;;;;;;5114841;28;20208;-59
2021/05/18 00:23:56;;;;;;;1.90;1.80;;;12.10;99.90;;;;;;5115143;28;20569;-59
2021/05/18 00:26:24;;;;;;;2.13;1.93;;;12.10;99.90;;;;;;5115402;28;20219;-59
2021/05/18 00:28:51;;;;;;;2.63;1.60;;;12.10;99.90;;;;;;5114959;28;20223;-60
2021/05/18 00:31:19;;;;;;;1.90;1.70;;;12.10;99.90;;;;;;5115245;28;20667;-60
2021/05/18 00:33:46;;;;;;;2.10;1.90;;;12.10;99.90;;;;;;5114702;28;20733;-59
2021/05/18 00:36:14;;;;;;;2.17;1.97;;;12.10;99.90;;;;;;5114350;28;20278;-59
2021/05/18 00:38:42;;;;;;;2.87;2.20;;;12.10;99.90;;;;;;5115361;28;20259;-59
2021/05/18 00:41:10;;;;;;;2.80;2.60;;;12.20;99.90;;;;;;5115579;28;20256;-59
2021/05/18 00:43:39;;;;;;;3.33;3.03;;;12.20;99.90;;;;;;5115227;28;20719;-59
2021/05/18 00:46:07;;;;;;;3.80;3.40;;;12.30;99.90;;;;;;5115256;28;20294;-59
2021/05/18 00:48:35;;;;;;;4.40;3.23;;;12.30;99.90;;;;;;5114949;28;20618;-59
2021/05/18 00:51:06;;;;;;;3.50;3.20;;;12.20;99.90;;;;;;5115429;28;20219;-59
2021/05/18 00:53:35;;;;;;;3.70;3.40;;;12.20;99.90;;;;;;5115450;28;20323;-58
2021/05/18 00:56:04;;;;;;;3.97;3.53;;;12.10;99.90;;;;;;5115126;28;20590;-59
2021/05/18 00:58:34;;;;;;;3.67;3.37;;;12.20;99.90;;;;;;5115231;28;20275;-60
2021/05/18 01:01:04;;;;;;;3.90;3.40;;;12.20;99.90;;;;;;5114972;28;20546;-59
2021/05/18 01:03:32;;;;;;;4.03;3.70;;;12.30;99.90;;;;;;5115302;28;20199;-60
2021/05/18 01:08:57;;;;;;;4.53;4.13;;;12.30;99.90;;;;;;5089913;28;20235;-59
2021/05/18 01:11:27;;;;;;;4.50;4.03;;;12.30;99.90;;;;;;5114835;28;20179;-59
2021/05/18 01:13:59;;;;;;;4.37;3.83;;;12.30;99.90;;;;;;5114875;28;20230;-58
2021/05/18 01:16:28;;;;;;;4.60;4.10;;;12.30;99.90;;;;;;5114670;28;20643;-59
2021/05/18 01:18:57;;;;;;;4.97;4.43;;;12.30;99.90;;;;;;5114721;28;20203;-59
2021/05/18 01:21:25;;;;;;;5.50;4.80;;;12.30;99.90;;;;;;5114570;28;20221;-59
2021/05/18 01:23:54;;;;;;;5.23;4.73;;;12.30;99.90;;;;;;5114767;28;20199;-59
2021/05/18 01:26:22;;;;;;;5.40;4.90;;;12.30;99.90;;;;;;5114502;28;20235;-59
2021/05/18 01:28:49;;;;;;;5.80;4.80;;;12.30;99.90;;;;;;5114300;28;20220;-59
2021/05/18 01:31:21;;;;;;;7.27;5.03;;;12.20;99.90;;;;;;5114563;28;20300;-59
2021/05/18 01:33:48;;;;;;;6.07;5.47;;;12.20;99.90;;;;;;5114443;28;20184;-60
2021/05/18 01:36:18;;;;;;;6.57;5.83;;;12.10;99.90;;;;;;5114269;28;20243;-60
2021/05/18 01:38:53;;;;;;;6.77;5.50;;;12.00;99.90;;;;;;5114137;28;20664;-58
2021/05/18 01:44:10;;;;;;;7.03;6.33;;;11.80;99.90;;;;;;5113373;28;20601;-59
2021/05/18 01:46:38;;;;;;;9.20;6.27;;;11.70;99.90;;;;;;5112981;28;20206;-59
2021/05/18 01:49:07;;;;;;;8.53;6.23;;;11.70;99.90;;;;;;5113996;28;20290;-60
2021/05/18 01:51:37;;;;;;;7.33;6.60;;;11.70;99.90;;;;;;5113669;28;20317;-60
2021/05/18 01:54:07;;;;;;;8.03;6.80;;;11.60;99.90;;;;;;5114053;28;20222;-58
2021/05/18 01:56:46;;;;;;;8.47;7.03;;;11.60;99.90;;;;;;5114080;28;20635;-60
2021/05/18 01:59:18;;;;;;;8.37;7.53;;;11.60;99.90;;;;;;5113727;28;20642;-59
2021/05/18 02:01:47;;;;;;;9.43;7.17;;;11.60;99.90;;;;;;5113959;28;20203;-60
2021/05/18 02:04:22;;;;;;;8.90;7.37;;;11.60;99.90;;;;;;5113565;28;20199;-59
2021/05/18 02:06:51;;;;;;;8.40;7.33;;;11.60;99.90;;;;;;5113889;28;20281;-59
2021/05/18 02:09:19;;;;;;;8.67;7.80;;;11.50;99.90;;;;;;5113902;28;20285;-59
2021/05/18 02:11:48;;;;;;;8.50;7.63;;;11.40;99.90;;;;;;5113853;28;20230;-60
2021/05/18 02:14:22;;;;;;;11.00;9.13;;;11.40;99.90;;;;;;5113270;28;20294;-59
2021/05/18 02:16:49;;;;;;;9.60;8.40;;;11.50;99.90;;;;;;5113750;28;20186;-60
2021/05/18 02:19:24;;;;;;;10.40;8.40;;;11.40;99.90;;;;;;5113445;28;20302;-60
2021/05/18 02:22:08;;;;;;;9.80;8.47;;;11.30;99.90;;;;;;5113304;28;20632;-60
2021/05/18 02:24:49;;;;;;;9.20;8.30;;;11.40;99.90;;;;;;5113664;28;20218;-59
2021/05/18 02:27:16;;;;;;;9.23;8.30;;;11.50;99.90;;;;;;5113578;28;20271;-60
2021/05/18 02:29:44;;;;;;;9.60;8.30;;;11.50;99.90;;;;;;5113435;28;20253;-59
2021/05/18 02:32:12;;;;;;;9.63;7.70;;;11.50;99.90;;;;;;5093131;28;20740;-59
2021/05/18 02:34:39;;;;;;;9.13;7.50;;;11.50;99.90;;;;;;5092961;28;20254;-59
2021/05/18 02:37:06;;;;;;;9.80;8.30;;;11.60;99.90;;;;;;5092981;28;20204;-59
2021/05/18 02:39:34;;;;;;;8.53;7.53;;;11.50;99.90;;;;;;5092599;28;20259;-59
2021/05/18 02:42:03;;;;;;;9.30;8.00;;;11.50;99.90;;;;;;5092605;28;20752;-59
2021/05/18 02:44:35;;;;;;;8.90;7.53;;;11.40;99.90;;;;;;5092758;28;20551;-60
2021/05/18 02:49:48;;;;;;;9.20;8.20;;;11.50;99.90;;;;;;5092816;28;20275;-59
2021/05/18 02:52:16;;;;;;;9.47;7.87;;;11.40;99.90;;;;;;5092913;28;20247;-59
2021/05/18 02:54:48;;;;;;;11.07;8.40;;;11.40;99.90;;;;;;5092631;28;20294;-59
2021/05/18 02:57:20;;;;;;;8.97;8.07;;;11.40;99.90;;;;;;5092839;28;20187;-59
2021/05/18 02:59:48;;;;;;;10.93;7.97;;;11.50;99.90;;;;;;5092510;28;20248;-60
2021/05/18 03:02:15;;;;;;;8.60;7.63;;;11.50;99.90;;;;;;5092704;28;20315;-60
2021/05/18 03:04:43;;;;;;;8.63;7.73;;;11.50;99.90;;;;;;5092416;28;20667;-59
2021/05/18 03:07:10;;;;;;;8.93;8.03;;;11.60;99.90;;;;;;5092663;28;20200;-60
2021/05/18 03:09:37;;;;;;;10.90;8.77;;;11.60;99.90;;;;;;5092743;28;20208;-59
2021/05/18 03:12:05;;;;;;;9.33;8.30;;;11.40;99.90;;;;;;5092574;28;20563;-60
2021/05/18 03:14:33;;;;;;;9.47;8.00;;;11.50;99.90;;;;;;5092403;28;20249;-59
2021/05/18 03:17:02;;;;;;;9.57;8.57;;;11.50;99.90;;;;;;5092300;28;20251;-59
2021/05/18 03:19:29;;;;;;;8.70;7.67;;;11.50;99.90;;;;;;5092472;28;20203;-59
2021/05/18 03:21:57;;;;;;;9.90;8.90;;;11.60;99.90;;;;;;5092602;28;20226;-59
2021/05/18 03:24:25;;;;;;;10.53;8.77;;;11.50;99.90;;;;;;5092621;28;20196;-59
2021/05/18 03:26:52;;;;;;;9.80;8.80;;;11.50;99.90;;;;;;5092662;28;20196;-58
2021/05/18 03:29:23;;;;;;;9.57;8.30;;;11.50;99.90;;;;;;5092507;28;20279;-58
2021/05/18 03:34:38;;;;;;;12.07;8.80;;;11.50;99.90;;;;;;5112395;28;20283;-59
2021/05/18 03:37:11;;;;;;;9.77;8.77;;;11.70;99.90;;;;;;5112742;28;20295;-59
2021/05/18 03:39:39;;;;;;;10.17;8.63;;;11.70;99.90;;;;;;5092330;28;20231;-59
2021/05/18 03:42:10;;;;;;;10.10;8.70;;;11.70;99.90;;;;;;5091932;28;20267;-64
2021/05/18 03:44:54;;;;;;;10.23;8.80;;;11.70;99.90;;;;;;5091879;28;20267;-63
2021/05/18 03:53:15;;;;;;;10.53;9.20;;;11.70;99.90;;;;;;5092045;28;20220;-63
2021/05/18 03:58:41;;;;;;;10.57;9.03;;;11.80;99.90;;;;;;5092286;28;20276;-62
2021/05/18 04:04:04;;;;;;;10.20;9.20;;;11.60;99.90;;;;;;5091786;28;20755;-63
2021/05/18 04:12:15;;;;;;;12.30;10.43;;;11.60;99.90;;;;;;5095550;28;20216;-63
2021/05/18 04:17:30;;;;;;;10.73;9.63;;;11.80;99.90;;;;;;5095340;28;20579;-63
2021/05/18 04:20:10;;;;;;;10.87;9.37;;;11.80;99.90;;;;;;5095396;28;20231;-63
2021/05/18 04:22:55;;;;;;;10.70;9.40;;;11.80;99.90;;;;;;5095100;28;20667;-63
2021/05/18 04:39:22;;;;;;;10.10;8.77;;;12.10;99.90;;;;;;5111744;28;20323;-63
2021/05/18 04:50:33;;;;;;;8.83;7.70;;;12.50;99.90;;;;;;5101595;28;20229;-63
2021/05/18 04:53:10;;;;;;;9.10;7.73;;;12.50;99.90;;;;;;5114869;28;20270;-63
2021/05/18 05:01:12;;;;;;;9.00;8.10;;;12.40;99.90;;;;;;5115151;28;20600;-64
2021/05/18 05:03:59;;;;;;;9.97;8.10;;;12.30;99.90;;;;;;5114990;28;20210;-62
2021/05/18 05:06:42;;;;;;;9.77;8.03;;;12.30;99.90;;;;;;5115225;28;20214;-64
2021/05/18 05:09:19;;;;;;;8.07;7.27;;;12.20;99.90;;;;;;5114936;28;20187;-63
2021/05/18 05:14:37;;;;;;;8.60;7.43;;;12.20;99.90;;;;;;5114347;28;20183;-63
2021/05/18 05:17:05;;;;;;;10.00;7.63;;;12.20;99.90;;;;;;5114765;28;20282;-63
2021/05/18 05:19:33;;;;;;;8.77;7.63;;;12.30;99.90;;;;;;5113942;28;20191;-64
2021/05/18 05:22:01;;;;;;;8.40;6.53;;;12.40;99.90;;;;;;5113183;28;20282;-63
2021/05/18 05:24:30;;;;;;;8.80;7.90;;;12.40;99.90;;;;;;5114246;28;20700;-63
2021/05/18 05:26:57;;;;;;;8.57;7.20;;;12.40;99.90;;;;;;5114296;28;20596;-64
2021/05/18 05:29:25;;;;;;;7.63;6.83;;;12.50;99.90;;;;;;5114179;28;20203;-63
2021/05/18 05:31:53;;;;;;;8.20;7.00;;;12.50;99.90;;;;;;5113904;28;20217;-63
2021/05/18 05:34:21;;;;;;;7.77;6.97;;;12.60;99.90;;;;;;5113466;28;20211;-63
2021/05/18 05:36:49;;;;;;;8.00;6.53;;;12.70;99.90;;;;;;5113069;28;20242;-63
2021/05/18 05:39:22;;;;;;;10.07;7.00;;;12.70;99.90;;;;;;5113629;28;20255;-62
2021/05/18 05:41:52;;;;;;;9.67;7.07;;;12.90;99.90;;;;;;5113794;28;20183;-63
2021/05/18 05:44:19;;;;;;;6.80;6.10;;;12.90;99.90;;;;;;5113839;28;20231;-64
2021/05/18 05:46:46;;;;;;;9.93;6.67;;;13.00;99.90;;;;;;5114140;28;20226;-63
2021/05/18 05:49:14;;;;;;;7.57;6.23;;;13.10;99.90;;;;;;5113082;28;20294;-63
2021/05/18 05:51:41;;;;;;;8.37;6.80;;;13.10;99.90;;;;;;5113828;28;20199;-64
2021/05/18 05:54:09;;;;;;;7.63;6.50;;;13.00;99.90;;;;;;5113589;28;20286;-64
2021/05/18 05:56:36;;;;;;;7.20;6.40;;;12.80;99.90;;;;;;5113539;28;20620;-63
2021/05/18 05:59:07;;;;;;;8.10;6.17;;;12.90;99.90;;;;;;5113783;28;20323;-64
2021/05/18 06:01:35;;;;;;;8.33;6.60;;;13.00;99.90;;;;;;5113589;28;20223;-64
2021/05/18 06:04:03;;;;;;;9.97;7.03;;;13.00;99.90;;;;;;5113431;28;20215;-63
2021/05/18 06:06:31;;;;;;;9.40;6.93;;;13.00;99.90;;;;;;5113719;28;20203;-63
2021/05/18 06:08:58;;;;;;;10.03;6.93;;;12.90;99.90;;;;;;5113290;28;20259;-64
2021/05/18 06:11:32;;;;;;;9.80;7.00;;;12.90;99.90;;;;;;5113385;28;20195;-64
2021/05/18 06:14:19;;;;;;;7.03;5.97;;;13.00;99.90;;;;;;5113419;28;20267;-63
2021/05/18 06:17:15;;;;;;;7.83;6.03;;;13.10;99.90;;;;;;5110414;28;20278;-63
2021/05/18 06:42:19;;;;;;;6.97;5.57;;;14.60;99.90;;;;;;5112754;28;20208;-64
2021/05/18 06:47:32;;;;;;;6.10;5.50;;;15.10;99.90;;;;;;5113323;28;20266;-64
2021/05/18 06:50:12;;;;;;;9.35;6.40;;;15.20;99.90;;;;;;5112798;28;20562;-62
2021/05/18 06:52:40;;;;;;;9.30;5.57;;;15.20;99.90;;;;;;5112828;28;20219;-64
2021/05/18 06:55:10;;;;;;;6.78;5.35;;;15.20;99.90;;;;;;5113202;28;20294;-63
2021/05/18 06:57:42;;;;;;;8.02;5.38;;;15.30;99.90;;;;;;5112928;28;20623;-63
2021/05/18 07:00:11;;;;;;;7.30;5.70;;;15.40;99.90;;;;;;5112999;28;20275;-64
2021/05/18 07:02:42;;;;;;;7.43;5.05;;;15.60;99.90;;;;;;5113136;28;20219;-63
2021/05/18 07:05:16;;;;;;;10.77;6.20;;;15.60;99.90;;;;;;5112686;28;20180;-64
2021/05/18 07:07:44;;;;;;;6.57;5.85;;;15.50;99.90;;;;;;5112936;28;20263;-63
2021/05/18 07:10:12;;;;;;;5.75;5.10;;;15.50;99.90;;;;;;5112263;28;20203;-63
2021/05/18 07:12:39;;;;;;;7.07;5.50;;;15.60;99.90;;;;;;5112477;28;20702;-63
2021/05/18 07:15:08;;;;;;;10.07;5.80;;;15.90;99.90;;;;;;5112542;28;20283;-63
2021/05/18 07:17:35;;;;;;;6.38;5.15;;;16.00;99.90;;;;;;5112789;28;20246;-63
2021/05/18 07:20:17;;;;;;;11.38;6.10;;;16.10;99.90;;;;;;5112920;28;20232;-64
2021/05/18 07:22:44;;;;;;;9.35;5.22;;;16.00;99.90;;;;;;5112537;28;20634;-63
2021/05/18 07:25:12;;;;;;;7.45;5.45;;;15.90;99.90;;;;;;5109838;28;20222;-63
2021/05/18 07:27:40;;;;;;;6.25;5.13;;;15.70;99.90;;;;;;5112614;28;20256;-63
2021/05/18 07:30:08;;;;;;;6.03;4.95;;;15.50;99.90;;;;;;5111461;28;20204;-63
2021/05/18 07:32:35;;;;;;;5.68;5.07;;;15.70;99.90;;;;;;5112349;28;20232;-63
2021/05/18 07:35:03;;;;;;;6.97;4.80;;;15.40;99.90;;;;;;5112775;28;20207;-63
2021/05/18 07:37:31;;;;;;;5.85;5.30;;;15.30;99.90;;;;;;5112252;28;20195;-62
2021/05/18 07:39:59;;;;;;;9.00;4.90;;;15.30;99.90;;;;;;5112530;28;20278;-63
2021/05/18 07:42:26;;;;;;;5.68;4.85;;;15.50;99.90;;;;;;5112423;28;20637;-63
2021/05/18 07:44:54;;;;;;;5.10;4.15;;;15.70;99.90;;;;;;5114625;28;20191;-63
2021/05/18 07:47:24;;;;;;;5.38;4.20;;;15.90;99.90;;;;;;5116340;28;20287;-63
2021/05/18 07:49:56;;;;;;;6.60;4.07;;;16.10;99.90;;;;;;5116241;28;20219;-62
2021/05/18 08:00:51;;;;;;;5.05;3.50;;;16.60;99.90;;;;;;5116175;28;20565;-64
2021/05/18 08:06:04;;;;;;;4.30;3.30;;;16.20;99.90;;;;;;5116006;28;20184;-62
2021/05/18 08:08:32;;;;;;;3.42;3.08;;;16.10;99.90;;;;;;5116328;28;20290;-63
2021/05/18 08:11:02;;;;;;;5.22;3.92;;;16.10;99.90;;;;;;5116228;28;20286;-63
2021/05/18 08:13:36;;;;;;;5.30;3.53;;;15.90;99.90;;;;;;5115949;28;20229;-63
2021/05/18 09:29:51;;;;;;;7.68;5.03;;;16.60;99.90;;;;;;5114693;28;20274;-63
2021/05/18 10:15:29;;;;;;;4.80;4.05;;;17.00;99.90;;;;;;5113232;28;20702;-59
2021/05/18 10:35:00;;;;;;;4.53;3.08;;;19.10;99.90;;;;;;5113176;28;20199;-61
2021/05/18 10:37:36;;;;;;;4.65;3.05;;;18.90;99.90;;;;;;5092561;28;20192;-60
2021/05/18 10:40:29;;;;;;;5.55;4.43;;;18.50;99.90;;;;;;5093119;28;20180;-60
2021/05/18 10:43:23;;;;;;;6.70;4.28;;;17.70;99.90;;;;;;5093100;28;20219;-59
2021/05/18 10:46:02;;;;;;;6.63;4.38;;;17.50;99.90;;;;;;5092670;28;20633;-60
2021/05/18 10:48:54;;;;;;;8.32;4.90;;;17.50;99.90;;;;;;5093046;28;20624;-60
2021/05/18 10:51:40;;;;;;;8.27;4.50;;;17.60;99.90;;;;;;5092324;28;20207;-60
2021/05/18 10:54:12;;;;;;;5.15;3.90;;;17.40;99.90;;;;;;5092545;28;20233;-60
2021/05/18 10:56:59;;;;;;;5.70;3.45;;;17.60;99.90;;;;;;5092620;28;20648;-61
2021/05/18 10:59:30;;;;;;;4.88;3.60;;;17.70;99.90;;;;;;5092773;28;20211;-60
2021/05/18 11:02:00;;;;;;;5.25;3.20;;;17.60;99.90;;;;;;5092678;28;20184;-60
2021/05/18 11:04:28;;;;;;;5.82;3.10;;;17.40;99.90;;;;;;5092139;28;20319;-59
2021/05/18 11:06:57;;;;;;;3.97;3.05;;;17.30;99.90;;;;;;5092186;28;20303;-59
2021/05/18 11:09:26;;;;;;;3.70;2.85;;;17.00;99.90;;;;;;5091963;28;20235;-59
2021/05/18 11:12:02;;;;;;;3.35;2.70;;;16.70;99.90;;;;;;5107592;28;20287;-60
2021/05/18 11:14:35;;;;;;;4.38;2.65;;;16.60;99.90;;;;;;5112539;28;20199;-59
2021/05/18 11:17:15;;;;;;;4.13;3.25;;;16.40;99.90;;;;;;5114754;28;20556;-64
2021/05/18 11:19:58;;;;;;;5.03;3.55;;;16.60;99.90;;;;;;5114086;28;20187;-62
2021/05/18 11:25:11;;;;;;;5.85;4.13;;;16.80;99.90;;;;;;5116665;28;20309;-63
2021/05/18 11:27:39;;;;;;;5.38;4.30;;;16.80;99.90;;;;;;5116829;28;20203;-63
2021/05/18 11:30:09;;;;;;;4.50;3.90;;;16.80;99.90;;;;;;5116836;28;20207;-62
2021/05/18 11:32:36;;;;;;;5.65;4.00;;;16.80;99.90;;;;;;5116760;28;20702;-63
2021/05/18 11:35:06;;;;;;;4.80;3.67;;;17.00;99.90;;;;;;5116515;28;20212;-64
2021/05/18 11:37:34;;;;;;;4.85;3.75;;;17.30;99.90;;;;;;5116578;28;20314;-63
2021/05/18 11:40:12;;;;;;;5.53;3.97;;;17.80;99.90;;;;;;5116495;28;20734;-64
2021/05/18 11:42:39;;;;;;;6.03;4.15;;;18.20;99.90;;;;;;5116466;28;20192;-63
2021/05/18 11:45:16;;;;;;;6.47;4.22;;;18.30;99.90;;;;;;5116430;28;20314;-63
2021/05/18 11:47:45;;;;;;;4.75;4.10;;;18.20;99.90;;;;;;5116385;28;20723;-63
2021/05/18 11:50:18;;;;;;;7.35;4.90;;;18.30;99.90;;;;;;5116547;28;20199;-64
2021/05/18 11:52:46;;;;;;;6.70;4.65;;;18.50;99.90;;;;;;5116444;28;20199;-63
2021/05/18 11:55:37;;;;;;;6.32;4.63;;;18.50;99.90;;;;;;5115713;28;20619;-63
2021/05/18 11:58:04;;;;;;;6.60;4.53;;;18.60;99.90;;;;;;5080541;28;20208;-62
2021/05/18 12:00:34;;;;;;;5.45;4.03;;;18.80;99.90;;;;;;5095878;28;20226;-63
2021/05/18 12:03:10;;;;;;;6.25;3.83;;;18.90;99.90;;;;;;5095886;28;20283;-62
2021/05/18 12:05:51;;;;;;;7.28;3.75;;;19.00;99.90;;;;;;5114079;28;20203;-64
2021/05/18 12:08:26;;;;;;;5.22;4.05;;;19.00;99.90;;;;;;5112319;28;20187;-63
2021/05/18 12:11:16;;;;;;;5.22;4.05;;;18.60;99.90;;;;;;5111090;28;20690;-63
2021/05/18 12:13:45;;;;;;;5.55;4.05;;;18.40;99.90;;;;;;5115445;28;20184;-63
2021/05/18 12:16:14;;;;;;;5.47;3.70;;;18.20;99.90;;;;;;5115813;28;20282;-63
2021/05/18 12:18:43;;;;;;;5.35;4.13;;;17.90;99.90;;;;;;5115334;28;20233;-63
2021/05/18 12:21:16;;;;;;;5.28;3.83;;;17.80;99.90;;;;;;5115492;28;20199;-63
2021/05/18 12:23:44;;;;;;;4.32;3.30;;;17.70;99.90;;;;;;5095458;28;20207;-64
2021/05/18 12:26:17;;;;;;;6.20;3.60;;;17.90;99.90;;;;;;5094751;28;20679;-64
2021/05/18 12:28:56;;;;;;;4.78;3.17;;;18.10;99.90;;;;;;5094870;28;20208;-64
2021/05/18 12:31:30;;;;;;;5.40;3.63;;;18.20;99.90;;;;;;5107290;28;20650;-63
2021/05/18 12:33:57;;;;;;;5.95;3.40;;;18.50;99.90;;;;;;5115625;28;20215;-63
2021/05/18 12:36:25;;;;;;;3.67;3.38;;;18.70;99.90;;;;;;5115464;28;20227;-66
2021/05/18 12:39:09;;;;;;;5.07;3.97;;;18.80;99.90;;;;;;5114855;28;20229;-63
2021/05/18 12:41:55;;;;;;;5.25;4.15;;;18.80;99.90;;;;;;5115257;28;20203;-63
2021/05/18 12:44:24;;;;;;;4.43;3.53;;;18.90;99.90;;;;;;5114959;28;20290;-63
2021/05/18 12:47:02;;;;;;;4.78;3.30;;;19.10;99.90;;;;;;5115250;28;20318;-63
2021/05/18 12:49:32;;;;;;;4.90;3.60;;;19.30;99.90;;;;;;5115193;28;20215;-64
2021/05/18 12:52:11;;;;;;;7.03;3.80;;;19.60;99.90;;;;;;5114846;28;20241;-63
2021/05/18 12:54:45;;;;;;;5.43;3.70;;;19.70;99.90;;;;;;5112991;28;20210;-64
2021/05/18 12:57:14;;;;;;;4.40;3.72;;;19.60;99.90;;;;;;5114965;28;20582;-63
2021/05/18 13:00:08;;;;;;;3.97;3.60;;;19.60;99.90;;;;;;5115169;28;20200;-65
2021/05/18 13:02:39;;;;;;;4.50;3.53;;;19.30;99.90;;;;;;5115095;28;20218;-64
2021/05/18 13:05:18;;;;;;;5.05;3.90;;;19.20;99.90;;;;;;5114618;28;20629;-63
2021/05/18 13:08:08;;;;;;;4.45;3.33;;;19.10;99.90;;;;;;5115104;28;20195;-63
2021/05/18 13:10:43;;;;;;;5.20;3.95;;;18.80;99.90;;;;;;5114546;28;20241;-64
2021/05/18 13:13:10;;;;;;;5.28;3.95;;;18.70;99.90;;;;;;5114599;28;20274;-63
2021/05/18 13:15:38;;;;;;;4.15;3.42;;;18.40;99.90;;;;;;5114418;28;20214;-64
2021/05/18 13:18:09;;;;;;;3.88;2.97;;;18.30;99.90;;;;;;5114796;28;20282;-63
2021/05/18 13:20:49;;;;;;;5.55;3.58;;;18.40;99.90;;;;;;5114999;28;20190;-63
2021/05/18 13:23:24;;;;;;;3.70;3.35;;;18.60;99.90;;;;;;5115105;28;20183;-64
2021/05/18 13:28:38;;;;;;;5.22;3.03;;;18.80;99.90;;;;;;5114634;28;20188;-64
2021/05/18 13:31:06;;;;;;;4.60;3.25;;;19.00;99.90;;;;;;5114704;28;20256;-62
2021/05/18 13:33:35;;;;;;;4.07;3.22;;;19.00;99.90;;;;;;5114334;28;20196;-63
2021/05/18 13:36:03;;;;;;;4.32;3.08;;;19.40;99.90;;;;;;5114309;28;20575;-64
2021/05/18 13:38:33;;;;;;;3.47;2.67;;;19.40;99.90;;;;;;5114240;28;20243;-63
2021/05/18 13:41:01;;;;;;;2.90;2.60;;;19.30;99.90;;;;;;5114600;28;20230;-63
2021/05/18 13:43:29;;;;;;;3.60;3.08;;;18.90;99.90;;;;;;5114020;28;20203;-63
2021/05/18 13:45:56;;;;;;;5.93;2.80;;;18.60;99.90;;;;;;5114221;28;20298;-62
2021/05/18 13:48:24;;;;;;;3.70;2.92;;;18.10;99.90;;;;;;5114289;28;20196;-63
2021/05/18 13:50:52;;;;;;;6.03;3.53;;;17.90;99.90;;;;;;5114039;28;20293;-63
2021/05/18 13:53:22;;;;;;;5.72;3.50;;;17.80;99.90;;;;;;5114327;28;20205;-63
2021/05/18 13:55:51;;;;;;;3.63;3.30;;;17.90;99.90;;;;;;5114334;28;20184;-63
2021/05/18 13:58:18;;;;;;;5.55;2.97;;;18.00;99.90;;;;;;5113998;28;20255;-62
2021/05/18 14:00:46;;;;;;;3.97;3.30;;;18.30;99.90;;;;;;5113899;28;20247;-63
2021/05/18 14:03:13;;;;;;;3.97;3.63;;;18.70;99.90;;;;;;5113942;28;20238;-63
2021/05/18 14:05:41;;;;;;;4.93;3.35;;;18.70;99.90;;;;;;5113451;28;20255;-64
2021/05/18 14:08:23;;;;;;;4.05;3.38;;;18.60;99.90;;;;;;5113882;28;20207;-63
2021/05/18 14:10:57;;;;;;;5.22;3.45;;;18.70;99.90;;;;;;5114022;28;20195;-62
2021/05/18 14:13:26;;;;;;;5.13;3.50;;;18.70;99.90;;;;;;5113664;28;20231;-64
2021/05/18 14:15:53;;;;;;;3.67;2.70;;;18.50;99.90;;;;;;5112886;28;20184;-63
2021/05/18 14:18:21;;;;;;;2.63;2.42;;;18.40;99.90;;;;;;5113383;28;20750;-64
2021/05/18 14:20:49;;;;;;;2.70;2.50;;;18.20;99.90;;;;;;5113373;28;20812;-63
2021/05/18 14:23:20;;;;;;;3.80;2.15;;;18.10;99.90;;;;;;5113393;28;20199;-64
2021/05/18 14:25:49;;;;;;;2.30;2.05;;;18.00;99.90;;;;;;5113556;28;20310;-63
2021/05/18 14:28:38;;;;;;;3.80;2.17;;;18.00;99.90;;;;;;5113405;28;20199;-64
2021/05/18 14:31:08;;;;;;;3.58;2.60;;;17.80;99.90;;;;;;5113540;28;20268;-64
2021/05/18 14:33:37;;;;;;;2.85;2.17;;;17.80;99.90;;;;;;5112794;28;20615;-64
2021/05/18 14:36:07;;;;;;;4.75;2.00;;;17.90;99.90;;;;;;5112765;28;20215;-64
2021/05/18 14:38:36;;;;;;;2.20;2.00;;;18.00;99.90;;;;;;5112396;28;20223;-63
2021/05/18 14:44:01;;;;;;;3.08;1.83;;;17.80;99.90;;;;;;5113172;28;20582;-63
2021/05/18 14:46:32;;;;;;;2.50;1.90;;;17.80;99.90;;;;;;5112927;28;20307;-63
2021/05/18 14:57:16;;;;;;;4.47;2.55;;;17.70;99.90;;;;;;5112447;28;20234;-62
2021/05/18 14:59:43;;;;;;;3.13;2.65;;;17.50;99.90;;;;;;5112532;28;20199;-63
2021/05/18 15:02:11;;;;;;;3.35;3.03;;;17.50;99.90;;;;;;5111813;28;20286;-64
2021/05/18 15:04:39;;;;;;;2.70;2.50;;;17.50;99.90;;;;;;5112853;28;20290;-64
2021/05/18 15:07:07;;;;;;;3.42;2.78;;;17.50;99.90;;;;;;5112839;28;20533;-63
2021/05/18 15:09:35;;;;;;;4.57;3.05;;;17.50;99.90;;;;;;5112572;28;20671;-64
2021/05/18 15:12:04;;;;;;;4.72;3.67;;;17.50;99.90;;;;;;5112603;28;20211;-64
2021/05/18 15:14:34;;;;;;;4.28;3.13;;;17.50;99.90;;;;;;5112312;28;20683;-63
2021/05/18 15:17:01;;;;;;;3.55;3.20;;;17.50;99.90;;;;;;5112528;28;20227;-62
2021/05/18 15:19:30;;;;;;;2.30;2.10;;;17.40;99.90;;;;;;5112749;28;20301;-63
2021/05/18 15:21:58;;;;;;;2.08;1.58;;;17.20;99.90;;;;;;5112467;28;20203;-63
2021/05/18 15:24:26;;;;;;;1.40;1.30;;;16.90;99.90;;;;;;5101400;28;20335;-62
2021/05/18 15:26:54;;;;;;;1.77;1.30;;;16.50;99.90;;;;;;5110075;28;20699;-62
2021/05/18 15:29:21;;;;;;;1.63;1.50;;;16.20;99.90;;;;;;5111945;28;20203;-66
2021/05/18 15:31:50;;;;;;;1.88;1.38;;;16.00;99.90;;;;;;5112311;28;20199;-62
2021/05/18 15:34:17;;;;;;;3.17;1.75;;;16.00;99.90;;;;;;5112792;28;20244;-63
2021/05/18 15:36:45;;;;;;;1.70;1.60;;;16.00;99.90;;;;;;5112676;28;20233;-63
2021/05/18 15:39:13;;;;;;;3.53;2.08;;;16.00;99.90;;;;;;5112292;28;20242;-73
2021/05/18 15:41:44;;;;;;;3.90;2.10;;;16.20;99.90;;;;;;5112509;28;20623;-69
2021/05/18 15:44:12;;;;;;;4.20;2.40;;;16.00;99.90;;;;;;5112176;28;20210;-71
2021/05/18 15:46:39;;;;;;;3.35;2.30;;;16.00;99.90;;;;;;5112456;28;20621;-70
2021/05/18 15:49:08;;;;;;;2.22;1.80;;;16.10;99.90;;;;;;5112332;28;20290;-63
2021/05/18 15:51:35;;;;;;;2.28;2.08;;;16.30;99.90;;;;;;5112504;28;20294;-63
2021/05/18 15:54:03;;;;;;;5.95;1.98;;;16.50;99.90;;;;;;5111992;28;20211;-71
2021/05/18 15:56:31;;;;;;;2.63;1.98;;;16.70;99.90;;;;;;5112088;28;20591;-66
2021/05/18 15:58:58;;;;;;;1.88;1.77;;;16.80;99.90;;;;;;5111880;28;20200;-67
2021/05/18 16:01:26;;;;;;;2.83;2.10;;;17.00;99.90;;;;;;5112259;28;20252;-66
2021/05/18 16:03:53;;;;;;;2.28;2.05;;;17.10;99.90;;;;;;5111942;28;20203;-68
2021/05/18 16:06:22;;;;;;;3.80;2.20;;;17.20;99.90;;;;;;5114797;28;20215;-61
2021/05/18 16:08:59;;;;;;;3.45;2.00;;;17.20;99.90;;;;;;5116045;28;20296;-61
2021/05/18 16:11:26;;;;;;;2.05;1.80;;;17.30;99.90;;;;;;5115995;28;20237;-61
2021/05/18 16:13:54;;;;;;;1.95;1.75;;;17.20;99.90;;;;;;5115617;28;20602;-62
2021/05/18 16:16:22;;;;;;;1.83;1.60;;;17.30;99.90;;;;;;5115920;28;20227;-63
2021/05/18 16:18:50;;;;;;;1.98;1.40;;;17.40;99.90;;;;;;5115548;28;20723;-62
2021/05/18 16:21:18;;;;;;;1.67;1.50;;;17.10;99.90;;;;;;5115568;28;20667;-61
2021/05/18 16:23:49;;;;;;;3.83;1.42;;;16.90;99.90;;;;;;5115651;28;20203;-66
2021/05/18 16:26:17;;;;;;;1.35;1.25;;;16.70;99.90;;;;;;5115182;28;20306;-66
2021/05/18 16:28:46;;;;;;;2.20;1.40;;;16.40;99.90;;;;;;5115184;28;20210;-67
2021/05/18 16:31:14;;;;;;;1.30;1.20;;;16.30;99.90;;;;;;5115546;28;20582;-61
2021/05/18 16:33:42;;;;;;;2.45;1.50;;;16.10;99.90;;;;;;5115672;28;20203;-61
2021/05/18 16:36:12;;;;;;;2.35;1.65;;;15.90;99.90;;;;;;5115134;28;20659;-60
2021/05/18 16:38:41;;;;;;;2.25;1.50;;;15.70;99.90;;;;;;5115063;28;20227;-65
2021/05/18 16:41:29;;;;;;;2.33;2.10;;;15.50;99.90;;;;;;5115114;28;20663;-63
2021/05/18 16:43:56;;;;;;;3.75;1.88;;;15.20;99.90;;;;;;5114636;28;20203;-66
2021/05/18 16:46:24;;;;;;;2.50;2.13;;;14.90;99.90;;;;;;5115135;28;20223;-65
2021/05/18 16:48:51;;;;;;;2.22;2.03;;;14.80;99.90;;;;;;5115231;28;20203;-64
2021/05/18 16:51:18;;;;;;;2.05;1.63;;;14.70;99.90;;;;;;5115161;28;20203;-64
2021/05/18 16:53:52;;;;;;;2.30;2.00;;;14.60;99.90;;;;;;5115225;28;20242;-63
2021/05/18 16:56:21;;;;;;;2.03;1.83;;;14.50;99.90;;;;;;5115117;28;20181;-63
2021/05/18 16:58:52;;;;;;;2.53;1.93;;;14.50;99.90;;;;;;5114841;28;20252;-61
2021/05/18 17:01:20;;;;;;;2.28;1.80;;;14.50;99.90;;;;;;5115141;28;20184;-63
2021/05/18 17:04:07;;;;;;;2.15;1.98;;;14.50;99.90;;;;;;5114794;28;20200;-63
2021/05/18 17:06:35;;;;;;;2.35;1.77;;;14.50;99.90;;;;;;5114877;28;20247;-61
2021/05/18 17:09:04;;;;;;;2.85;2.10;;;14.40;99.90;;;;;;5114886;28;20202;-61
2021/05/18 17:11:32;;;;;;;2.60;1.70;;;14.30;99.90;;;;;;5114873;28;20239;-63
2021/05/18 17:14:00;;;;;;;2.23;1.90;;;14.10;99.90;;;;;;5114524;28;20302;-63
2021/05/18 17:16:27;;;;;;;2.20;2.00;;;14.00;99.90;;;;;;5114388;28;20256;-60